createdAt,value
2022-08-14T00:00:15.221Z,996.56
2022-08-14T00:01:13.205Z,996.53
2022-08-14T00:02:13.194Z,996.53
2022-08-14T00:03:13.602Z,996.53
2022-08-14T00:04:34.392Z,996.50
2022-08-14T00:05:13.340Z,996.48
2022-08-14T00:06:25.356Z,996.45
2022-08-14T00:07:14.555Z,996.47
2022-08-14T00:08:14.205Z,996.48
2022-08-14T00:09:13.538Z,996.45
2022-08-14T00:10:52.274Z,996.46
2022-08-14T00:11:13.080Z,996.42
2022-08-14T00:12:23.948Z,996.42
2022-08-14T00:13:14.021Z,996.43
2022-08-14T00:14:17.220Z,996.40
2022-08-14T00:15:15.126Z,996.42
2022-08-14T00:16:13.385Z,996.37
2022-08-14T00:17:14.211Z,996.39
2022-08-14T00:18:14.588Z,996.39
2022-08-14T00:19:19.121Z,996.34
2022-08-14T00:20:13.421Z,996.30
2022-08-14T00:21:13.393Z,996.30
2022-08-14T00:22:13.515Z,996.30
2022-08-14T00:23:16.357Z,996.30
2022-08-14T00:24:13.963Z,996.30
2022-08-14T00:25:16.611Z,996.26
2022-08-14T00:26:23.032Z,996.22
2022-08-14T00:27:13.210Z,996.24
2022-08-14T00:28:15.225Z,996.25
2022-08-14T00:29:13.225Z,996.20
2022-08-14T00:30:14.275Z,996.21
2022-08-14T00:31:14.736Z,996.20
2022-08-14T00:32:53.211Z,996.18
2022-08-14T00:33:16.110Z,996.18
2022-08-14T00:34:36.956Z,996.18
2022-08-14T00:35:13.024Z,996.19
2022-08-14T00:36:37.489Z,996.18
2022-08-14T00:37:13.462Z,996.18
2022-08-14T00:38:13.611Z,996.16
2022-08-14T00:39:13.872Z,996.15
2022-08-14T00:40:27.327Z,996.17
2022-08-14T00:41:14.090Z,996.15
2022-08-14T00:42:21.431Z,996.18
2022-08-14T00:43:13.225Z,996.19
2022-08-14T00:44:12.951Z,996.19
2022-08-14T00:45:13.943Z,996.17
2022-08-14T00:46:32.519Z,996.17
2022-08-14T00:47:13.756Z,996.14
2022-08-14T00:48:15.447Z,996.14
2022-08-14T00:49:14.667Z,996.13
2022-08-14T00:50:17.511Z,996.11
2022-08-14T00:51:12.839Z,996.11
2022-08-14T00:52:13.870Z,996.11
2022-08-14T00:53:13.317Z,996.12
2022-08-14T00:54:21.216Z,996.13
2022-08-14T00:55:13.936Z,996.10
2022-08-14T00:56:14.140Z,996.08
2022-08-14T00:57:13.774Z,996.05
2022-08-14T00:58:15.020Z,996.07
2022-08-14T00:59:13.495Z,996.00
2022-08-14T01:00:34.175Z,996.02
2022-08-14T01:01:13.558Z,995.98
2022-08-14T01:02:14.910Z,995.96
2022-08-14T01:03:14.642Z,995.96
2022-08-14T01:04:52.257Z,995.93
2022-08-14T01:05:13.665Z,995.94
2022-08-14T01:06:13.547Z,995.96
2022-08-14T01:07:14.660Z,995.97
2022-08-14T01:08:20.652Z,995.93
2022-08-14T01:09:13.272Z,995.93
2022-08-14T01:10:13.867Z,995.93
2022-08-14T01:11:13.030Z,995.98
2022-08-14T01:12:13.330Z,995.96
2022-08-14T01:13:14.965Z,995.96
2022-08-14T01:14:26.041Z,995.93
2022-08-14T01:15:14.668Z,995.94
2022-08-14T01:16:14.787Z,995.91
2022-08-14T01:17:13.663Z,995.89
2022-08-14T01:18:13.156Z,995.89
2022-08-14T01:19:13.037Z,995.86
2022-08-14T01:20:27.725Z,995.83
2022-08-14T01:21:12.799Z,995.82
2022-08-14T01:22:13.710Z,995.80
2022-08-14T01:23:16.260Z,995.78
2022-08-14T01:24:13.004Z,995.77
2022-08-14T01:25:13.719Z,995.77
2022-08-14T01:26:13.723Z,995.74
2022-08-14T01:27:13.722Z,995.73
2022-08-14T01:28:46.497Z,995.73
2022-08-14T01:29:16.179Z,995.75
2022-08-14T01:30:14.055Z,995.76
2022-08-14T01:31:14.304Z,995.73
2022-08-14T01:32:14.008Z,995.72
2022-08-14T01:33:14.175Z,995.71
2022-08-14T01:35:17.635Z,995.71
2022-08-14T01:35:18.769Z,995.69
2022-08-14T01:36:23.092Z,995.66
2022-08-14T01:37:13.704Z,995.63
2022-08-14T01:38:13.485Z,995.60
2022-08-14T01:39:13.561Z,995.63
2022-08-14T01:40:19.836Z,995.59
2022-08-14T01:41:15.025Z,995.62
2022-08-14T01:42:31.649Z,995.59
2022-08-14T01:43:12.866Z,995.58
2022-08-14T01:44:33.135Z,995.58
2022-08-14T01:45:25.222Z,995.60
2022-08-14T01:46:24.320Z,995.57
2022-08-14T01:47:21.965Z,995.59
2022-08-14T01:48:14.151Z,995.58
2022-08-14T01:49:14.605Z,995.57
2022-08-14T01:50:14.340Z,995.56
2022-08-14T01:51:19.423Z,995.54
2022-08-14T01:52:34.259Z,995.51
2022-08-14T01:53:13.310Z,995.51
2022-08-14T01:54:14.256Z,995.48
2022-08-14T01:55:13.608Z,995.45
2022-08-14T01:56:18.379Z,995.40
2022-08-14T01:57:12.857Z,995.36
2022-08-14T01:58:19.943Z,995.35
2022-08-14T01:59:14.648Z,995.35
2022-08-14T02:00:13.725Z,995.31
2022-08-14T02:01:12.958Z,995.31
2022-08-14T02:02:14.684Z,995.27
2022-08-14T02:03:13.670Z,995.26
2022-08-14T02:04:40.505Z,995.23
2022-08-14T02:05:13.072Z,995.21
2022-08-14T02:06:32.466Z,995.20
2022-08-14T02:07:15.460Z,995.19
2022-08-14T02:08:12.921Z,995.13
2022-08-14T02:09:22.242Z,995.16
2022-08-14T02:10:15.913Z,995.13
2022-08-14T02:11:13.004Z,995.11
2022-08-14T02:12:19.474Z,995.09
2022-08-14T02:13:13.488Z,995.11
2022-08-14T02:14:14.290Z,995.09
2022-08-14T02:15:13.982Z,995.05
2022-08-14T02:16:21.738Z,995.05
2022-08-14T02:17:13.340Z,995.05
2022-08-14T02:18:15.109Z,995.04
2022-08-14T02:19:14.027Z,995.05
2022-08-14T02:20:14.558Z,995.06
2022-08-14T02:21:13.477Z,995.06
2022-08-14T02:22:12.864Z,995.04
2022-08-14T02:23:13.480Z,995.08
2022-08-14T02:24:39.776Z,995.05
2022-08-14T02:25:13.052Z,995.08
2022-08-14T02:26:24.075Z,995.08
2022-08-14T02:28:23.734Z,995.08
2022-08-14T02:28:24.384Z,995.05
2022-08-14T02:29:14.017Z,995.05
2022-08-14T02:30:13.811Z,995.00
2022-08-14T02:31:14.967Z,994.96
2022-08-14T02:32:19.866Z,994.94
2022-08-14T02:33:13.228Z,994.88
2022-08-14T02:34:20.314Z,994.89
2022-08-14T02:35:13.218Z,994.91
2022-08-14T02:37:05.922Z,994.89
2022-08-14T02:37:14.813Z,994.88
2022-08-14T02:38:30.267Z,994.86
2022-08-14T02:39:13.338Z,994.84
2022-08-14T02:40:13.672Z,994.88
2022-08-14T02:41:13.565Z,994.83
2022-08-14T02:42:13.628Z,994.83
2022-08-14T02:43:13.469Z,994.84
2022-08-14T02:44:13.828Z,994.81
2022-08-14T02:45:13.874Z,994.78
2022-08-14T02:46:13.705Z,994.78
2022-08-14T02:47:14.922Z,994.81
2022-08-14T02:49:01.293Z,994.83
2022-08-14T02:49:13.525Z,994.83
2022-08-14T02:50:13.342Z,994.82
2022-08-14T02:51:14.281Z,994.85
2022-08-14T02:52:16.076Z,994.85
2022-08-14T02:53:13.100Z,994.81
2022-08-14T02:54:19.824Z,994.80
2022-08-14T02:55:20.477Z,994.82
2022-08-14T02:56:30.319Z,994.77
2022-08-14T02:57:39.203Z,994.82
2022-08-14T02:58:21.560Z,994.79
2022-08-14T02:59:13.742Z,994.78
2022-08-14T03:00:18.724Z,994.80
2022-08-14T03:01:13.381Z,994.79
2022-08-14T03:02:49.008Z,994.78
2022-08-14T03:03:13.942Z,994.78
2022-08-14T03:04:12.909Z,994.76
2022-08-14T03:05:12.918Z,994.78
2022-08-14T03:06:13.142Z,994.78
2022-08-14T03:07:13.785Z,994.74
2022-08-14T03:08:15.383Z,994.76
2022-08-14T03:09:13.223Z,994.71
2022-08-14T03:10:25.348Z,994.67
2022-08-14T03:11:18.305Z,994.68
2022-08-14T03:12:13.530Z,994.66
2022-08-14T03:13:19.132Z,994.66
2022-08-14T03:14:15.391Z,994.66
2022-08-14T03:15:14.042Z,994.66
2022-08-14T03:16:19.865Z,994.71
2022-08-14T03:17:13.734Z,994.70
2022-08-14T03:18:13.628Z,994.73
2022-08-14T03:19:13.351Z,994.72
2022-08-14T03:20:13.261Z,994.75
2022-08-14T03:21:13.059Z,994.75
2022-08-14T03:22:17.685Z,994.72
2022-08-14T03:23:18.036Z,994.70
2022-08-14T03:24:16.591Z,994.69
2022-08-14T03:25:13.020Z,994.69
2022-08-14T03:26:18.222Z,994.69
2022-08-14T03:27:13.980Z,994.71
2022-08-14T03:28:14.380Z,994.67
2022-08-14T03:29:13.941Z,994.70
2022-08-14T03:30:14.505Z,994.71
2022-08-14T03:31:13.985Z,994.72
2022-08-14T03:32:13.742Z,994.71
2022-08-14T03:33:13.295Z,994.69
2022-08-14T03:34:24.378Z,994.71
2022-08-14T03:35:13.103Z,994.73
2022-08-14T03:37:37.632Z,994.71
2022-08-14T03:37:38.386Z,994.68
2022-08-14T03:39:15.648Z,994.68
2022-08-14T03:39:22.693Z,994.67
2022-08-14T03:40:18.434Z,994.65
2022-08-14T03:41:13.863Z,994.67
2022-08-14T03:42:19.672Z,994.65
2022-08-14T03:43:13.217Z,994.63
2022-08-14T03:45:20.312Z,994.66
2022-08-14T03:45:26.968Z,994.67
2022-08-14T03:46:51.938Z,994.67
2022-08-14T03:47:15.287Z,994.65
2022-08-14T03:48:30.122Z,994.65
2022-08-14T03:49:13.645Z,994.63
2022-08-14T03:50:14.144Z,994.61
2022-08-14T03:51:13.490Z,994.60
2022-08-14T03:52:38.306Z,994.56
2022-08-14T03:53:13.515Z,994.61
2022-08-14T03:54:15.694Z,994.59
2022-08-14T03:55:13.629Z,994.57
2022-08-14T03:56:13.681Z,994.58
2022-08-14T03:57:13.447Z,994.56
2022-08-14T03:58:34.915Z,994.57
2022-08-14T03:59:17.901Z,994.54
2022-08-14T04:00:43.107Z,994.54
2022-08-14T04:01:13.010Z,994.51
2022-08-14T04:02:33.350Z,994.51
2022-08-14T04:03:16.730Z,994.52
2022-08-14T04:04:13.031Z,994.52
2022-08-14T04:05:13.342Z,994.54
2022-08-14T04:06:13.733Z,994.48
2022-08-14T04:07:13.172Z,994.48
2022-08-14T04:08:22.745Z,994.51
2022-08-14T04:09:13.534Z,994.50
2022-08-14T04:10:13.626Z,994.47
2022-08-14T04:11:13.641Z,994.45
2022-08-14T04:12:13.471Z,994.44
2022-08-14T04:13:13.784Z,994.44
2022-08-14T04:14:15.327Z,994.48
2022-08-14T04:15:13.903Z,994.46
2022-08-14T04:16:13.376Z,994.51
2022-08-14T04:17:13.591Z,994.52
2022-08-14T04:18:13.611Z,994.48
2022-08-14T04:19:13.284Z,994.53
2022-08-14T04:20:13.268Z,994.56
2022-08-14T04:21:12.970Z,994.55
2022-08-14T04:22:13.940Z,994.55
2022-08-14T04:23:18.413Z,994.53
2022-08-14T04:24:13.818Z,994.57
2022-08-14T04:25:12.954Z,994.57
2022-08-14T04:26:15.085Z,994.58
2022-08-14T04:27:13.491Z,994.55
2022-08-14T04:29:01.945Z,994.57
2022-08-14T04:29:14.965Z,994.54
2022-08-14T04:30:22.204Z,994.52
2022-08-14T04:31:12.771Z,994.53
2022-08-14T04:32:58.331Z,994.54
2022-08-14T04:33:18.385Z,994.51
2022-08-14T04:34:20.850Z,994.52
2022-08-14T04:35:13.402Z,994.51
2022-08-14T04:36:15.792Z,994.52
2022-08-14T04:37:13.126Z,994.53
2022-08-14T04:38:36.796Z,994.52
2022-08-14T04:39:13.499Z,994.54
2022-08-14T04:40:15.104Z,994.55
2022-08-14T04:41:13.740Z,994.53
2022-08-14T04:42:14.264Z,994.54
2022-08-14T04:43:14.471Z,994.55
2022-08-14T04:44:35.730Z,994.55
2022-08-14T04:45:13.515Z,994.56
2022-08-14T04:46:55.547Z,994.52
2022-08-14T04:47:14.172Z,994.51
2022-08-14T04:48:13.357Z,994.54
2022-08-14T04:49:15.253Z,994.51
2022-08-14T04:50:13.297Z,994.49
2022-08-14T04:51:12.950Z,994.51
2022-08-14T04:52:15.390Z,994.52
2022-08-14T04:53:13.166Z,994.45
2022-08-14T04:54:13.770Z,994.47
2022-08-14T04:55:13.892Z,994.42
2022-08-14T04:56:30.799Z,994.44
2022-08-14T04:57:13.325Z,994.44
2022-08-14T04:58:21.460Z,994.42
2022-08-14T04:59:13.550Z,994.43
2022-08-14T05:00:16.331Z,994.42
2022-08-14T05:01:19.698Z,994.41
2022-08-14T05:02:13.837Z,994.36
2022-08-14T05:03:12.821Z,994.43
2022-08-14T05:04:16.158Z,994.41
2022-08-14T05:05:13.472Z,994.40
2022-08-14T05:06:38.016Z,994.38
2022-08-14T05:07:13.281Z,994.41
2022-08-14T05:08:32.240Z,994.40
2022-08-14T05:09:14.612Z,994.39
2022-08-14T05:10:16.391Z,994.37
2022-08-14T05:11:14.132Z,994.37
2022-08-14T05:13:01.024Z,994.36
2022-08-14T05:13:15.841Z,994.36
2022-08-14T05:14:34.062Z,994.34
2022-08-14T05:15:13.005Z,994.33
2022-08-14T05:16:15.325Z,994.35
2022-08-14T05:17:12.857Z,994.36
2022-08-14T05:18:17.386Z,994.43
2022-08-14T05:19:18.109Z,994.43
2022-08-14T05:21:54.107Z,994.45
2022-08-14T05:22:00.126Z,994.47
2022-08-14T05:22:16.069Z,994.48
2022-08-14T05:23:13.375Z,994.52
2022-08-14T05:24:17.796Z,994.51
2022-08-14T05:25:12.919Z,994.50
2022-08-14T05:26:13.404Z,994.49
2022-08-14T05:27:13.452Z,994.48
2022-08-14T05:28:16.191Z,994.46
2022-08-14T05:29:13.720Z,994.43
2022-08-14T05:30:13.766Z,994.43
2022-08-14T05:31:14.205Z,994.38
2022-08-14T05:32:13.424Z,994.41
2022-08-14T05:33:13.344Z,994.39
2022-08-14T05:34:16.183Z,994.38
2022-08-14T05:35:13.217Z,994.39
2022-08-14T05:36:16.508Z,994.33
2022-08-14T05:37:12.945Z,994.36
2022-08-14T05:38:22.216Z,994.34
2022-08-14T05:39:13.790Z,994.36
2022-08-14T05:40:12.939Z,994.39
2022-08-14T05:41:12.712Z,994.40
2022-08-14T05:42:21.969Z,994.45
2022-08-14T05:43:13.138Z,994.42
2022-08-14T05:44:13.433Z,994.43
2022-08-14T05:45:14.704Z,994.40
2022-08-14T05:46:15.251Z,994.38
2022-08-14T05:47:13.642Z,994.39
2022-08-14T05:48:13.306Z,994.37
2022-08-14T05:49:13.491Z,994.33
2022-08-14T05:50:17.252Z,994.33
2022-08-14T05:51:13.246Z,994.32
2022-08-14T05:52:17.857Z,994.34
2022-08-14T05:53:14.195Z,994.31
2022-08-14T05:54:13.813Z,994.28
2022-08-14T05:55:13.189Z,994.29
2022-08-14T05:56:13.151Z,994.29
2022-08-14T05:57:13.148Z,994.30
2022-08-14T05:58:13.823Z,994.35
2022-08-14T05:59:13.900Z,994.34
2022-08-14T06:00:28.168Z,994.33
2022-08-14T06:01:13.263Z,994.33
2022-08-14T06:02:14.134Z,994.34
2022-08-14T06:03:13.437Z,994.36
2022-08-14T06:04:13.307Z,994.35
2022-08-14T06:05:14.092Z,994.35
2022-08-14T06:06:15.107Z,994.32
2022-08-14T06:07:13.397Z,994.35
2022-08-14T06:08:31.515Z,994.30
2022-08-14T06:09:13.372Z,994.32
2022-08-14T06:10:15.118Z,994.28
2022-08-14T06:11:14.869Z,994.25
2022-08-14T06:12:13.614Z,994.27
2022-08-14T06:13:14.585Z,994.29
2022-08-14T06:14:21.312Z,994.27
2022-08-14T06:15:13.102Z,994.25
2022-08-14T06:16:12.935Z,994.29
2022-08-14T06:17:15.672Z,994.25
2022-08-14T06:18:13.561Z,994.26
2022-08-14T06:19:18.233Z,994.28
2022-08-14T06:20:22.110Z,994.31
2022-08-14T06:21:13.732Z,994.34
2022-08-14T06:22:13.719Z,994.31
2022-08-14T06:23:15.519Z,994.32
2022-08-14T06:24:18.868Z,994.35
2022-08-14T06:25:15.988Z,994.33
2022-08-14T06:26:13.168Z,994.32
2022-08-14T06:27:14.534Z,994.29
2022-08-14T06:28:26.892Z,994.30
2022-08-14T06:29:13.494Z,994.27
2022-08-14T06:30:14.181Z,994.28
2022-08-14T06:31:13.638Z,994.23
2022-08-14T06:32:37.574Z,994.25
2022-08-14T06:33:15.775Z,994.26
2022-08-14T06:35:02.547Z,994.29
2022-08-14T06:35:13.738Z,994.22
2022-08-14T06:36:13.775Z,994.26
2022-08-14T06:37:16.662Z,994.25
2022-08-14T06:38:17.106Z,994.25
2022-08-14T06:39:17.300Z,994.26
2022-08-14T06:40:25.783Z,994.24
2022-08-14T06:41:13.593Z,994.25
2022-08-14T06:42:32.647Z,994.30
2022-08-14T06:43:15.456Z,994.29
2022-08-14T06:44:13.848Z,994.29
2022-08-14T06:45:13.976Z,994.27
2022-08-14T06:46:23.246Z,994.30
2022-08-14T06:47:13.494Z,994.29
2022-08-14T06:48:13.777Z,994.30
2022-08-14T06:49:14.839Z,994.30
2022-08-14T06:50:13.621Z,994.29
2022-08-14T06:51:13.795Z,994.29
2022-08-14T06:52:15.427Z,994.29
2022-08-14T06:53:13.433Z,994.27
2022-08-14T06:54:13.602Z,994.28
2022-08-14T06:55:13.762Z,994.31
2022-08-14T06:56:13.761Z,994.25
2022-08-14T06:57:17.005Z,994.26
2022-08-14T06:58:24.793Z,994.23
2022-08-14T06:59:19.651Z,994.21
2022-08-14T07:00:22.419Z,994.19
2022-08-14T07:01:13.765Z,994.23
2022-08-14T07:02:17.650Z,994.24
2022-08-14T07:03:13.253Z,994.22
2022-08-14T07:04:22.678Z,994.24
2022-08-14T07:05:20.803Z,994.19
2022-08-14T07:06:45.512Z,994.21
2022-08-14T07:07:12.930Z,994.22
2022-08-14T07:08:13.339Z,994.22
2022-08-14T07:09:19.496Z,994.22
2022-08-14T07:10:17.278Z,994.20
2022-08-14T07:11:14.497Z,994.18
2022-08-14T07:12:54.477Z,994.20
2022-08-14T07:13:13.502Z,994.21
2022-08-14T07:14:13.883Z,994.23
2022-08-14T07:15:13.236Z,994.19
2022-08-14T07:16:16.505Z,994.21
2022-08-14T07:17:13.141Z,994.23
2022-08-14T07:18:15.470Z,994.18
2022-08-14T07:19:17.452Z,994.21
2022-08-14T07:20:14.010Z,994.17
2022-08-14T07:21:14.575Z,994.22
2022-08-14T07:22:17.551Z,994.20
2022-08-14T07:23:20.543Z,994.23
2022-08-14T07:24:21.776Z,994.22
2022-08-14T07:25:13.439Z,994.21
2022-08-14T07:26:12.963Z,994.25
2022-08-14T07:27:15.142Z,994.21
2022-08-14T07:28:20.935Z,994.21
2022-08-14T07:29:15.373Z,994.19
2022-08-14T07:30:33.979Z,994.22
2022-08-14T07:31:13.085Z,994.22
2022-08-14T07:32:13.214Z,994.19
2022-08-14T07:33:16.322Z,994.15
2022-08-14T07:34:36.078Z,994.17
2022-08-14T07:35:12.948Z,994.14
2022-08-14T07:36:26.353Z,994.14
2022-08-14T07:37:16.930Z,994.13
2022-08-14T07:38:13.584Z,994.11
2022-08-14T07:39:14.647Z,994.10
2022-08-14T07:40:15.109Z,994.05
2022-08-14T07:41:14.616Z,994.05
2022-08-14T07:42:13.458Z,994.02
2022-08-14T07:43:14.620Z,994.04
2022-08-14T07:44:28.789Z,994.00
2022-08-14T07:45:14.840Z,993.99
2022-08-14T07:46:14.052Z,994.02
2022-08-14T07:47:17.544Z,994.04
2022-08-14T07:48:14.833Z,994.04
2022-08-14T07:49:15.310Z,994.02
2022-08-14T07:50:16.611Z,994.01
2022-08-14T07:51:14.127Z,994.02
2022-08-14T07:52:13.806Z,994.01
2022-08-14T07:53:15.969Z,993.98
2022-08-14T07:54:16.379Z,993.94
2022-08-14T07:55:15.511Z,994.00
2022-08-14T07:56:36.756Z,993.99
2022-08-14T07:57:22.429Z,993.93
2022-08-14T07:58:34.339Z,993.94
2022-08-14T07:59:15.229Z,993.94
2022-08-14T08:00:31.091Z,993.95
2022-08-14T08:01:16.118Z,993.95
2022-08-14T08:02:20.361Z,993.98
2022-08-14T08:03:19.300Z,993.94
2022-08-14T08:04:24.028Z,993.92
2022-08-14T08:05:16.358Z,993.90
2022-08-14T08:06:17.458Z,993.89
2022-08-14T08:07:13.823Z,993.83
2022-08-14T08:08:26.966Z,993.82
2022-08-14T08:09:14.992Z,993.79
2022-08-14T08:10:13.250Z,993.78
2022-08-14T08:11:15.182Z,993.80
2022-08-14T08:12:15.747Z,993.81
2022-08-14T08:13:15.718Z,993.74
2022-08-14T08:14:17.342Z,993.76
2022-08-14T08:15:17.557Z,993.79
2022-08-14T08:16:14.516Z,993.77
2022-08-14T08:17:15.967Z,993.72
2022-08-14T08:18:20.539Z,993.71
2022-08-14T08:19:16.983Z,993.70
2022-08-14T08:20:19.956Z,993.71
2022-08-14T08:21:16.028Z,993.66
2022-08-14T08:22:14.525Z,993.64
2022-08-14T08:23:20.605Z,993.62
2022-08-14T08:24:21.313Z,993.62
2022-08-14T08:25:14.147Z,993.61
2022-08-14T08:26:13.198Z,993.62
2022-08-14T08:27:13.499Z,993.64
2022-08-14T08:28:22.424Z,993.65
2022-08-14T08:29:13.966Z,993.63
2022-08-14T08:30:16.400Z,993.65
2022-08-14T08:31:14.457Z,993.69
2022-08-14T08:32:16.769Z,993.72
2022-08-14T08:33:15.534Z,993.68
2022-08-14T08:34:18.147Z,993.64
2022-08-14T08:35:17.757Z,993.66
2022-08-14T08:36:18.658Z,993.64
2022-08-14T08:37:13.199Z,993.64
2022-08-14T08:39:14.166Z,993.64
2022-08-14T08:39:22.722Z,993.61
2022-08-14T08:40:20.825Z,993.58
2022-08-14T08:41:13.120Z,993.54
2022-08-14T08:42:14.991Z,993.53
2022-08-14T08:43:15.562Z,993.51
2022-08-14T08:44:17.471Z,993.50
2022-08-14T08:45:15.490Z,993.51
2022-08-14T08:46:21.099Z,993.46
2022-08-14T08:47:18.020Z,993.52
2022-08-14T08:48:18.431Z,993.50
2022-08-14T08:49:18.906Z,993.49
2022-08-14T08:50:31.062Z,993.48
2022-08-14T08:51:13.581Z,993.48
2022-08-14T08:52:15.326Z,993.50
2022-08-14T08:53:13.998Z,993.48
2022-08-14T08:54:19.611Z,993.47
2022-08-14T08:55:14.627Z,993.47
2022-08-14T08:56:30.742Z,993.43
2022-08-14T08:57:15.637Z,993.44
2022-08-14T08:58:16.529Z,993.47
2022-08-14T08:59:13.533Z,993.46
2022-08-14T09:00:24.894Z,993.50
2022-08-14T09:01:14.858Z,993.51
2022-08-14T09:02:16.473Z,993.53
2022-08-14T09:03:18.035Z,993.53
2022-08-14T09:04:17.383Z,993.56
2022-08-14T09:05:14.442Z,993.59
2022-08-14T09:07:00.523Z,993.55
2022-08-14T09:07:16.090Z,993.56
2022-08-14T09:08:31.060Z,993.56
2022-08-14T09:09:16.822Z,993.55
2022-08-14T09:10:22.188Z,993.58
2022-08-14T09:11:19.174Z,993.56
2022-08-14T09:12:16.840Z,993.56
2022-08-14T09:13:18.068Z,993.58
2022-08-14T09:14:13.652Z,993.60
2022-08-14T09:15:15.185Z,993.63
2022-08-14T09:16:18.494Z,993.64
2022-08-14T09:17:16.816Z,993.64
2022-08-14T09:18:18.546Z,993.62
2022-08-14T09:19:15.277Z,993.62
2022-08-14T09:20:29.420Z,993.59
2022-08-14T09:21:18.261Z,993.59
2022-08-14T09:22:35.765Z,993.55
2022-08-14T09:23:17.799Z,993.51
2022-08-14T09:24:28.892Z,993.48
2022-08-14T09:25:19.748Z,993.46
2022-08-14T09:26:21.446Z,993.46
2022-08-14T09:27:22.696Z,993.44
2022-08-14T09:28:16.606Z,993.43
2022-08-14T09:29:16.753Z,993.42
2022-08-14T09:30:30.943Z,993.39
2022-08-14T09:31:24.184Z,993.40
2022-08-14T09:32:58.201Z,993.36
2022-08-14T09:33:12.873Z,993.37
2022-08-14T09:34:27.055Z,993.41
2022-08-14T09:35:15.089Z,993.41
2022-08-14T09:36:18.626Z,993.43
2022-08-14T09:37:17.646Z,993.48
2022-08-14T09:38:25.613Z,993.48
2022-08-14T09:39:23.050Z,993.49
2022-08-14T09:40:21.241Z,993.51
2022-08-14T09:41:13.749Z,993.53
2022-08-14T09:42:20.582Z,993.52
2022-08-14T09:43:12.896Z,993.52
2022-08-14T09:44:21.024Z,993.47
2022-08-14T09:45:17.822Z,993.38
2022-08-14T09:46:21.303Z,993.44
2022-08-14T09:47:18.581Z,993.40
2022-08-14T09:48:19.379Z,993.40
2022-08-14T09:49:16.652Z,993.32
2022-08-14T09:50:14.796Z,993.28
2022-08-14T09:51:18.989Z,993.33
2022-08-14T09:52:32.738Z,993.27
2022-08-14T09:53:18.883Z,993.27
2022-08-14T09:54:22.633Z,993.30
2022-08-14T09:55:17.259Z,993.37
2022-08-14T09:56:30.514Z,993.34
2022-08-14T09:57:15.493Z,993.33
2022-08-14T09:58:19.219Z,993.33
2022-08-14T09:59:17.888Z,993.32
2022-08-14T10:00:30.112Z,993.30
2022-08-14T10:01:15.592Z,993.33
2022-08-14T10:02:16.106Z,993.32
2022-08-14T10:03:21.677Z,993.21
2022-08-14T10:04:34.515Z,993.18
2022-08-14T10:05:18.097Z,993.15
2022-08-14T10:06:15.466Z,993.08
2022-08-14T10:07:16.588Z,993.11
2022-08-14T10:08:25.423Z,993.12
2022-08-14T10:09:16.824Z,993.12
2022-08-14T10:10:23.780Z,993.11
2022-08-14T10:11:17.027Z,993.01
2022-08-14T10:12:28.813Z,993.00
2022-08-14T10:13:13.379Z,993.04
2022-08-14T10:14:19.093Z,992.99
2022-08-14T10:15:17.501Z,992.96
2022-08-14T10:16:25.731Z,992.98
2022-08-14T10:17:18.203Z,992.98
2022-08-14T10:18:17.461Z,992.99
2022-08-14T10:19:17.138Z,993.00
2022-08-14T10:20:39.723Z,993.00
2022-08-14T10:21:15.258Z,992.94
2022-08-14T10:23:14.241Z,992.89
2022-08-14T10:23:17.996Z,992.90
2022-08-14T10:24:17.561Z,992.84
2022-08-14T10:25:17.711Z,992.69
2022-08-14T10:26:22.627Z,992.66
2022-08-14T10:27:20.860Z,992.68
2022-08-14T10:28:14.387Z,992.64
2022-08-14T10:29:23.701Z,992.69
2022-08-14T10:30:14.813Z,992.64
2022-08-14T10:31:17.224Z,992.68
2022-08-14T10:32:18.233Z,992.66
2022-08-14T10:33:16.646Z,992.68
2022-08-14T10:34:14.052Z,992.71
2022-08-14T10:35:16.429Z,992.70
2022-08-14T10:36:33.631Z,992.68
2022-08-14T10:37:15.172Z,992.67
2022-08-14T10:38:19.155Z,992.62
2022-08-14T10:39:13.196Z,992.58
2022-08-14T10:40:38.604Z,992.55
2022-08-14T10:41:17.978Z,992.54
2022-08-14T10:42:16.734Z,992.55
2022-08-14T10:43:17.963Z,992.58
2022-08-14T10:44:20.931Z,992.59
2022-08-14T10:45:17.028Z,992.60
2022-08-14T10:47:37.387Z,992.67
2022-08-14T10:47:39.330Z,992.65
2022-08-14T10:48:24.301Z,992.67
2022-08-14T10:49:15.951Z,992.70
2022-08-14T10:50:15.087Z,992.67
2022-08-14T10:51:16.176Z,992.62
2022-08-14T10:52:16.207Z,992.63
2022-08-14T10:53:19.046Z,992.65
2022-08-14T10:54:35.998Z,992.64
2022-08-14T10:55:17.798Z,992.59
2022-08-14T10:56:22.045Z,992.54
2022-08-14T10:57:15.426Z,992.50
2022-08-14T10:58:17.334Z,992.52
2022-08-14T10:59:14.395Z,992.50
2022-08-14T11:00:20.750Z,992.47
2022-08-14T11:01:19.081Z,992.45
2022-08-14T11:02:17.639Z,992.42
2022-08-14T11:03:19.821Z,992.47
2022-08-14T11:04:17.942Z,992.44
2022-08-14T11:05:14.765Z,992.43
2022-08-14T11:06:15.892Z,992.46
2022-08-14T11:07:21.402Z,992.50
2022-08-14T11:08:19.145Z,992.42
2022-08-14T11:09:18.686Z,992.43
2022-08-14T11:10:15.534Z,992.41
2022-08-14T11:11:18.942Z,992.41
2022-08-14T11:12:39.916Z,992.41
2022-08-14T11:13:18.623Z,992.31
2022-08-14T11:14:22.078Z,992.36
2022-08-14T11:15:17.575Z,992.38
2022-08-14T11:16:17.674Z,992.34
2022-08-14T11:17:21.603Z,992.23
2022-08-14T11:18:20.619Z,992.26
2022-08-14T11:19:16.170Z,992.25
2022-08-14T11:20:19.050Z,992.24
2022-08-14T11:21:17.693Z,992.28
2022-08-14T11:23:02.888Z,992.27
2022-08-14T11:23:18.115Z,992.26
2022-08-14T11:24:55.158Z,992.22
2022-08-14T11:25:18.791Z,992.23
2022-08-14T11:26:17.992Z,992.21
2022-08-14T11:27:19.008Z,992.18
2022-08-14T11:28:20.917Z,992.19
2022-08-14T11:29:16.057Z,992.17
2022-08-14T11:30:50.710Z,992.18
2022-08-14T11:31:18.417Z,992.17
2022-08-14T11:32:17.410Z,992.18
2022-08-14T11:33:16.573Z,992.17
2022-08-14T11:34:32.050Z,992.18
2022-08-14T11:35:19.882Z,992.15
2022-08-14T11:36:18.186Z,992.12
2022-08-14T11:37:24.828Z,992.08
2022-08-14T11:38:19.642Z,992.07
2022-08-14T11:39:18.338Z,992.04
2022-08-14T11:40:24.213Z,992.03
2022-08-14T11:41:20.738Z,992.01
2022-08-14T11:42:56.216Z,992.01
2022-08-14T11:43:18.325Z,992.03
2022-08-14T11:44:45.328Z,992.04
2022-08-14T11:45:23.394Z,992.03
2022-08-14T11:46:30.451Z,992.04
2022-08-14T11:47:20.202Z,992.01
2022-08-14T11:48:59.709Z,992.03
2022-08-14T11:49:22.156Z,992.00
2022-08-14T11:50:25.083Z,992.00
2022-08-14T11:51:16.444Z,991.97
2022-08-14T11:52:17.805Z,991.96
2022-08-14T11:53:18.378Z,992.00
2022-08-14T11:54:19.481Z,992.00
2022-08-14T11:55:21.181Z,991.98
2022-08-14T11:56:18.498Z,991.98
2022-08-14T11:57:19.363Z,991.93
2022-08-14T11:58:23.791Z,991.96
2022-08-14T11:59:18.628Z,991.85
2022-08-14T12:00:20.432Z,991.87
2022-08-14T12:01:17.034Z,991.78
2022-08-14T12:03:00.174Z,991.74
2022-08-14T12:03:27.082Z,991.78
2022-08-14T12:04:32.585Z,991.72
2022-08-14T12:05:19.410Z,991.74
2022-08-14T12:06:27.963Z,991.81
2022-08-14T12:07:17.323Z,991.79
2022-08-14T12:08:18.182Z,991.80
2022-08-14T12:09:18.841Z,991.81
2022-08-14T12:10:27.018Z,991.78
2022-08-14T12:11:17.609Z,991.82
2022-08-14T12:12:50.089Z,991.80
2022-08-14T12:13:17.820Z,991.82
2022-08-14T12:14:13.734Z,991.82
2022-08-14T12:15:15.249Z,991.81
2022-08-14T12:16:15.231Z,991.80
2022-08-14T12:17:13.645Z,991.84
2022-08-14T12:18:19.562Z,991.79
2022-08-14T12:19:17.626Z,991.78
2022-08-14T12:20:29.818Z,991.76
2022-08-14T12:21:19.384Z,991.79
2022-08-14T12:22:29.424Z,991.78
2022-08-14T12:23:17.231Z,991.79
2022-08-14T12:24:36.902Z,991.79
2022-08-14T12:25:17.672Z,991.78
2022-08-14T12:26:39.592Z,991.72
2022-08-14T12:27:19.463Z,991.74
2022-08-14T12:28:26.961Z,991.67